Time;durP1;ratioP1;P1;durP2;ratioP2;P2;SDS_P1;SDS_P2;PMS_P1;PMS_P2;Temp;Humidity;BMP_temperature;BMP_pressure;BME280_temperature;BME280_humidity;BME280_pressure;Samples;Min_cycle;Max_cycle;Signal;HPM_P1;HPM_P2
2023/07/30 00:01:20;;;;;;;0.00;0.00;;;17.70;99.90;;;;;;5040326;28;20451;-71
2023/07/30 00:03:46;;;;;;;1.10;1.02;;;17.70;99.90;;;;;;5025989;28;20057;-71
2023/07/30 00:06:12;;;;;;;0.20;0.10;;;17.70;99.90;;;;;;5038473;28;20057;-71
2023/07/30 00:08:37;;;;;;;0.25;0.25;;;17.70;99.90;;;;;;5041217;28;20373;-71
2023/07/30 00:11:03;;;;;;;0.30;0.30;;;17.70;99.90;;;;;;5041163;28;20048;-71
2023/07/30 00:13:28;;;;;;;0.00;0.00;;;17.60;99.90;;;;;;5035839;28;20041;-71
2023/07/30 00:15:54;;;;;;;1.90;0.80;;;17.60;99.90;;;;;;5037651;28;20041;-71
2023/07/30 00:18:19;;;;;;;0.50;0.50;;;17.60;99.90;;;;;;5038339;28;20551;-71
2023/07/30 00:20:45;;;;;;;0.40;0.40;;;17.60;99.90;;;;;;5035305;28;20044;-72
2023/07/30 00:23:11;;;;;;;0.28;0.28;;;17.50;99.90;;;;;;5043185;28;20176;-71
2023/07/30 00:25:37;;;;;;;0.15;0.15;;;17.50;99.90;;;;;;5035432;28;20052;-71
2023/07/30 00:28:02;;;;;;;1.85;0.70;;;17.60;99.90;;;;;;5034304;28;20061;-71
2023/07/30 00:30:28;;;;;;;0.10;0.10;;;17.60;99.90;;;;;;5035828;28;20133;-71
2023/07/30 00:32:53;;;;;;;0.10;0.10;;;17.60;99.90;;;;;;5042190;28;20065;-71
2023/07/30 00:35:19;;;;;;;0.80;0.70;;;17.50;99.90;;;;;;5038839;28;20040;-71
2023/07/30 00:37:45;;;;;;;3.53;0.95;;;17.50;99.90;;;;;;5042460;28;20048;-71
2023/07/30 00:40:11;;;;;;;0.50;0.50;;;17.50;99.90;;;;;;5039338;28;20500;-71
2023/07/30 00:42:37;;;;;;;0.35;0.35;;;17.50;99.90;;;;;;5041550;28;20404;-71
2023/07/30 00:45:03;;;;;;;0.75;0.40;;;17.50;99.90;;;;;;5040049;28;20048;-71
2023/07/30 00:47:29;;;;;;;3.70;1.23;;;17.40;99.90;;;;;;5033144;28;20481;-71
2023/07/30 00:49:55;;;;;;;0.10;0.10;;;17.40;99.90;;;;;;5044879;28;20041;-70
2023/07/30 00:52:22;;;;;;;3.42;1.25;;;17.40;99.90;;;;;;5040846;28;20131;-71
2023/07/30 00:54:48;;;;;;;0.50;0.50;;;17.50;99.90;;;;;;5047183;28;20044;-71
2023/07/30 00:57:16;;;;;;;0.00;0.00;;;17.50;99.90;;;;;;5038293;28;20045;-71
2023/07/30 00:59:42;;;;;;;6.28;0.47;;;17.50;99.90;;;;;;5024092;28;20045;-71
2023/07/30 01:02:08;;;;;;;0.47;0.47;;;17.50;99.90;;;;;;5041636;28;20049;-70
2023/07/30 01:04:37;;;;;;;0.85;0.68;;;17.60;99.90;;;;;;5046371;28;20497;-71
2023/07/30 01:07:03;;;;;;;0.60;0.20;;;17.50;99.90;;;;;;5045600;28;20049;-71
2023/07/30 01:09:29;;;;;;;0.00;0.00;;;17.60;99.90;;;;;;5034154;28;20160;-71
2023/07/30 01:11:55;;;;;;;0.22;0.22;;;17.60;99.90;;;;;;5046910;28;20131;-71
2023/07/30 01:14:22;;;;;;;0.00;0.00;;;17.60;99.90;;;;;;5039222;28;20052;-71
2023/07/30 01:16:49;;;;;;;0.00;0.00;;;17.70;99.90;;;;;;5045837;28;20498;-71
2023/07/30 01:19:14;;;;;;;0.20;0.20;;;17.70;99.90;;;;;;5035475;28;20037;-71
2023/07/30 01:21:40;;;;;;;0.00;0.00;;;17.70;99.90;;;;;;5034663;28;20057;-71
2023/07/30 01:24:05;;;;;;;0.00;0.00;;;17.80;99.90;;;;;;5046049;28;20037;-71
2023/07/30 01:26:47;;;;;;;0.10;0.10;;;17.80;99.90;;;;;;5040065;28;20064;-71
2023/07/30 01:29:22;;;;;;;0.65;0.65;;;17.80;99.90;;;;;;5042235;28;20041;-71
2023/07/30 01:31:56;;;;;;;5.05;3.30;;;17.80;99.90;;;;;;5037825;28;20045;-71
2023/07/30 01:34:23;;;;;;;;;;;17.80;99.90;;;;;;5039066;28;20697;-71
2023/07/30 01:36:49;;;;;;;0.10;0.10;;;17.90;99.90;;;;;;5036669;28;19921;-71
2023/07/30 01:39:16;;;;;;;0.25;0.25;;;17.90;99.90;;;;;;5046116;28;20663;-71
2023/07/30 01:41:41;;;;;;;0.10;0.10;;;17.90;99.90;;;;;;5037112;28;20396;-71
2023/07/30 01:44:07;;;;;;;0.32;0.32;;;17.90;99.90;;;;;;5036420;28;20041;-71
2023/07/30 01:46:33;;;;;;;0.85;0.57;;;17.90;99.90;;;;;;5038388;28;20056;-71
2023/07/30 01:48:58;;;;;;;0.25;0.25;;;17.90;99.90;;;;;;5040607;28;20051;-71
2023/07/30 01:51:24;;;;;;;0.08;0.08;;;17.90;99.90;;;;;;5040904;28;20057;-71
2023/07/30 01:53:49;;;;;;;0.20;0.20;;;17.90;99.90;;;;;;5037330;28;20056;-71
2023/07/30 01:56:15;;;;;;;0.20;0.20;;;17.80;99.90;;;;;;5046682;28;20037;-71
2023/07/30 01:58:41;;;;;;;0.10;0.10;;;17.80;99.90;;;;;;5038201;28;20086;-71
2023/07/30 02:01:06;;;;;;;0.00;0.00;;;17.80;99.90;;;;;;5046089;28;20385;-71
2023/07/30 02:03:32;;;;;;;0.20;0.20;;;17.80;99.90;;;;;;5039462;28;20033;-71
2023/07/30 02:05:57;;;;;;;0.35;0.35;;;17.80;99.90;;;;;;5037017;28;20079;-71
2023/07/30 02:08:23;;;;;;;0.10;0.10;;;17.80;99.90;;;;;;5022620;28;20093;-71
2023/07/30 02:10:59;;;;;;;0.38;0.38;;;17.80;99.90;;;;;;5040270;28;20029;-71
2023/07/30 02:13:25;;;;;;;0.00;0.00;;;17.80;99.90;;;;;;5035942;28;20048;-71
2023/07/30 02:15:50;;;;;;;0.40;0.32;;;17.80;99.90;;;;;;5047296;28;20044;-71
2023/07/30 02:18:16;;;;;;;0.20;0.20;;;17.70;99.90;;;;;;5041316;28;20063;-71
2023/07/30 02:20:42;;;;;;;0.40;0.40;;;17.80;99.90;;;;;;5040411;28;20049;-71
2023/07/30 02:23:08;;;;;;;0.52;0.30;;;17.70;99.90;;;;;;5039612;28;20124;-71
2023/07/30 02:25:34;;;;;;;8.70;2.15;;;17.80;99.90;;;;;;5033114;28;20091;-71
2023/07/30 02:28:00;;;;;;;0.10;0.10;;;17.70;99.90;;;;;;5040140;28;20040;-71
2023/07/30 02:30:26;;;;;;;0.15;0.15;;;17.70;99.90;;;;;;5026747;28;20045;-71
2023/07/30 02:32:52;;;;;;;0.70;0.38;;;17.70;99.90;;;;;;5035428;28;20094;-71
2023/07/30 02:35:18;;;;;;;0.00;0.00;;;17.70;99.90;;;;;;5039260;28;20048;-71
2023/07/30 02:37:43;;;;;;;2.13;1.08;;;17.70;99.90;;;;;;5027479;28;20381;-71
2023/07/30 02:40:09;;;;;;;0.10;0.10;;;17.60;99.90;;;;;;5039627;28;20049;-71
2023/07/30 02:42:35;;;;;;;2.90;1.45;;;17.60;99.90;;;;;;5036534;28;20082;-71
2023/07/30 02:45:01;;;;;;;0.75;0.75;;;17.70;99.90;;;;;;5044536;28;20817;-70
2023/07/30 02:47:26;;;;;;;0.00;0.00;;;17.60;99.90;;;;;;5038028;28;20049;-71
2023/07/30 02:49:53;;;;;;;0.00;0.00;;;17.60;99.90;;;;;;5032721;28;20481;-71
2023/07/30 02:52:18;;;;;;;0.00;0.00;;;17.60;99.90;;;;;;5038538;28;20049;-71
2023/07/30 02:54:44;;;;;;;0.00;0.00;;;17.60;99.90;;;;;;5044783;28;20041;-71
2023/07/30 02:57:11;;;;;;;1.25;0.70;;;17.60;99.90;;;;;;5036000;28;20106;-71
2023/07/30 02:59:37;;;;;;;0.13;0.13;;;17.50;99.90;;;;;;5037138;28;20049;-71
2023/07/30 03:02:05;;;;;;;2.38;0.57;;;17.50;99.90;;;;;;5043479;28;20037;-71
2023/07/30 03:04:31;;;;;;;0.00;0.00;;;17.50;99.90;;;;;;5039117;28;20038;-71
2023/07/30 03:06:56;;;;;;;0.00;0.00;;;17.60;99.90;;;;;;5023875;28;20102;-71
2023/07/30 03:09:22;;;;;;;0.00;0.00;;;17.50;99.90;;;;;;5033860;28;20488;-71
2023/07/30 03:11:49;;;;;;;0.00;0.00;;;17.50;99.90;;;;;;5040747;28;20123;-71
2023/07/30 03:14:15;;;;;;;0.30;0.30;;;17.50;99.90;;;;;;5036730;28;20049;-71
2023/07/30 03:16:40;;;;;;;0.00;0.00;;;17.50;99.90;;;;;;5037385;28;20045;-71
2023/07/30 03:19:06;;;;;;;0.00;0.00;;;17.50;99.90;;;;;;5044568;28;20430;-71
2023/07/30 03:21:32;;;;;;;2.83;0.85;;;17.40;99.90;;;;;;5038034;28;20052;-71
2023/07/30 03:23:57;;;;;;;0.13;0.13;;;17.50;99.90;;;;;;5045745;28;20044;-71
2023/07/30 03:26:23;;;;;;;0.10;0.10;;;17.40;99.90;;;;;;5035229;28;20036;-71
2023/07/30 03:28:48;;;;;;;0.00;0.00;;;17.30;99.90;;;;;;5040171;28;20029;-71
2023/07/30 03:31:14;;;;;;;0.50;0.50;;;17.30;99.90;;;;;;5041456;28;20084;-70
2023/07/30 03:33:43;;;;;;;0.00;0.00;;;17.30;99.90;;;;;;5025905;28;20044;-71
2023/07/30 03:36:10;;;;;;;1.52;0.57;;;17.30;99.90;;;;;;5035665;28;20042;-71
2023/07/30 03:38:36;;;;;;;0.22;0.22;;;17.30;99.90;;;;;;5042042;28;20040;-71
2023/07/30 03:41:02;;;;;;;0.00;0.00;;;17.30;99.90;;;;;;5040201;28;20042;-71
2023/07/30 03:43:27;;;;;;;0.00;0.00;;;17.30;99.90;;;;;;5036271;28;20116;-71
2023/07/30 03:45:53;;;;;;;4.75;0.90;;;17.20;99.90;;;;;;5021215;28;20117;-71
2023/07/30 03:48:18;;;;;;;0.00;0.00;;;17.20;99.90;;;;;;5036165;28;20053;-71
2023/07/30 03:50:44;;;;;;;0.00;0.00;;;17.20;99.90;;;;;;5032762;28;20052;-71
2023/07/30 03:53:10;;;;;;;3.30;0.98;;;17.20;99.90;;;;;;5042415;28;20114;-71
2023/07/30 03:55:36;;;;;;;0.00;0.00;;;17.20;99.90;;;;;;5040255;28;20048;-70
2023/07/30 03:58:01;;;;;;;0.00;0.00;;;17.30;99.90;;;;;;5039222;28;20053;-71
2023/07/30 04:00:28;;;;;;;0.00;0.00;;;17.20;99.90;;;;;;5037316;28;20404;-71
2023/07/30 04:02:54;;;;;;;0.00;0.00;;;17.30;99.90;;;;;;5037731;28;20087;-70
2023/07/30 04:05:19;;;;;;;0.00;0.00;;;17.20;99.90;;;;;;5033890;28;20045;-70
2023/07/30 04:07:45;;;;;;;0.30;0.30;;;17.20;99.90;;;;;;5037545;28;20047;-70
2023/07/30 04:10:10;;;;;;;0.00;0.00;;;17.20;99.90;;;;;;5044042;28;20436;-71
2023/07/30 04:12:36;;;;;;;0.00;0.00;;;17.30;99.90;;;;;;5035874;28;20041;-71
2023/07/30 04:15:02;;;;;;;1.45;0.43;;;17.20;99.90;;;;;;5043811;28;20041;-70
2023/07/30 04:17:27;;;;;;;0.00;0.00;;;17.30;99.90;;;;;;5044751;28;20075;-71
2023/07/30 04:19:53;;;;;;;0.00;0.00;;;17.30;99.90;;;;;;5043244;28;20045;-70
2023/07/30 04:22:18;;;;;;;0.00;0.00;;;17.30;99.90;;;;;;5035972;28;20046;-70
2023/07/30 04:24:44;;;;;;;0.05;0.05;;;17.20;99.90;;;;;;5033215;28;20508;-70
2023/07/30 04:27:10;;;;;;;1.98;0.52;;;17.30;99.90;;;;;;5042895;28;20082;-70
2023/07/30 04:29:35;;;;;;;0.00;0.00;;;17.20;99.90;;;;;;5033591;28;20048;-70
2023/07/30 04:32:01;;;;;;;5.82;1.55;;;17.30;99.90;;;;;;5035307;28;20037;-71
2023/07/30 04:34:26;;;;;;;0.30;0.30;;;17.30;99.90;;;;;;5036618;28;20040;-70
2023/07/30 04:36:52;;;;;;;0.00;0.00;;;17.20;99.90;;;;;;5040379;28;20051;-70
2023/07/30 04:39:17;;;;;;;0.10;0.10;;;17.20;99.90;;;;;;5045828;28;20416;-70
2023/07/30 04:41:43;;;;;;;0.32;0.20;;;17.30;99.90;;;;;;5045621;28;20094;-71
2023/07/30 04:44:09;;;;;;;0.00;0.00;;;17.30;99.90;;;;;;5037907;28;20038;-70
2023/07/30 04:46:34;;;;;;;0.00;0.00;;;17.30;99.90;;;;;;5038883;28;20090;-70
2023/07/30 04:49:02;;;;;;;0.00;0.00;;;17.30;99.90;;;;;;5039369;28;20029;-70
2023/07/30 04:51:27;;;;;;;7.22;0.52;;;17.30;99.90;;;;;;5032046;28;20099;-71
2023/07/30 04:53:53;;;;;;;0.00;0.00;;;17.30;99.90;;;;;;5036667;28;20404;-71
2023/07/30 04:56:19;;;;;;;4.43;0.80;;;17.30;99.90;;;;;;5042581;28;20056;-70
2023/07/30 04:58:44;;;;;;;0.00;0.00;;;17.30;99.90;;;;;;5030864;28;20049;-71
2023/07/30 05:01:10;;;;;;;0.00;0.00;;;17.30;99.90;;;;;;5031776;28;20057;-71
2023/07/30 05:03:35;;;;;;;0.00;0.00;;;17.30;99.90;;;;;;5043662;28;20037;-70
2023/07/30 05:06:01;;;;;;;0.10;0.10;;;17.30;99.90;;;;;;5043141;28;20145;-70
2023/07/30 05:08:27;;;;;;;0.00;0.00;;;17.30;99.90;;;;;;5044407;28;20049;-70
2023/07/30 05:10:52;;;;;;;0.00;0.00;;;17.30;99.90;;;;;;5035851;28;20056;-70
2023/07/30 05:13:18;;;;;;;0.00;0.00;;;17.40;99.90;;;;;;5037953;28;20033;-70
2023/07/30 05:15:43;;;;;;;0.00;0.00;;;17.40;99.90;;;;;;5046383;28;20053;-70
2023/07/30 05:18:09;;;;;;;1.13;1.02;;;17.40;99.90;;;;;;5044063;28;20044;-71
2023/07/30 05:20:34;;;;;;;0.00;0.00;;;17.40;99.90;;;;;;5041262;28;20143;-70
2023/07/30 05:23:02;;;;;;;4.53;0.75;;;17.40;99.90;;;;;;5051746;28;20396;-70
2023/07/30 05:25:27;;;;;;;0.70;0.70;;;17.40;99.90;;;;;;5040335;28;20488;-71
2023/07/30 05:27:53;;;;;;;0.43;0.20;;;17.50;99.90;;;;;;5021423;28;20060;-70
2023/07/30 05:30:18;;;;;;;0.00;0.00;;;17.40;99.90;;;;;;5043550;28;20063;-70
2023/07/30 05:32:44;;;;;;;0.30;0.28;;;17.50;99.90;;;;;;5040152;28;20056;-70
2023/07/30 05:35:10;;;;;;;0.00;0.00;;;17.50;99.90;;;;;;5023631;28;20400;-70
2023/07/30 05:37:35;;;;;;;0.10;0.10;;;17.50;99.90;;;;;;5026923;28;20052;-70
2023/07/30 05:40:01;;;;;;;0.50;0.35;;;17.50;99.90;;;;;;5037303;28;20045;-70
2023/07/30 05:42:26;;;;;;;0.43;0.43;;;17.50;99.90;;;;;;5044834;28;20555;-70
2023/07/30 05:44:52;;;;;;;0.00;0.00;;;17.50;99.90;;;;;;5047569;28;20060;-70
2023/07/30 05:47:18;;;;;;;2.75;1.17;;;17.50;99.90;;;;;;5029193;28;20049;-70
2023/07/30 05:49:43;;;;;;;0.13;0.13;;;17.50;99.90;;;;;;5042563;28;20055;-70
2023/07/30 05:52:09;;;;;;;0.15;0.15;;;17.50;99.90;;;;;;5039202;28;20045;-70
2023/07/30 05:54:34;;;;;;;0.00;0.00;;;17.50;99.90;;;;;;5044690;28;20063;-70
2023/07/30 05:57:00;;;;;;;0.00;0.00;;;17.50;99.90;;;;;;5036633;28;20037;-70
2023/07/30 05:59:25;;;;;;;0.10;0.10;;;17.60;99.90;;;;;;5025765;28;20094;-70
2023/07/30 06:01:52;;;;;;;0.22;0.22;;;17.60;99.90;;;;;;5042798;28;20047;-70
2023/07/30 06:04:17;;;;;;;0.00;0.00;;;17.60;99.90;;;;;;5041496;28;20053;-70
2023/07/30 06:06:43;;;;;;;0.00;0.00;;;17.60;99.90;;;;;;5037962;28;20393;-70
2023/07/30 06:09:09;;;;;;;0.47;0.47;;;17.60;99.90;;;;;;5046155;28;20036;-70
2023/07/30 06:11:34;;;;;;;0.10;0.10;;;17.60;99.90;;;;;;5041197;28;20045;-70
2023/07/30 06:14:00;;;;;;;0.00;0.00;;;17.60;99.90;;;;;;5039628;28;20045;-70
2023/07/30 06:16:26;;;;;;;0.05;0.05;;;17.60;99.90;;;;;;5039269;28;20080;-71
2023/07/30 06:18:51;;;;;;;0.17;0.17;;;17.60;99.90;;;;;;5043100;28;20432;-70
2023/07/30 06:21:17;;;;;;;0.63;0.63;;;17.60;99.90;;;;;;5041525;28;20049;-70
2023/07/30 06:23:42;;;;;;;1.30;0.60;;;17.70;99.90;;;;;;5047561;28;20036;-70
2023/07/30 06:26:08;;;;;;;5.47;0.63;;;17.70;99.90;;;;;;5024629;28;20107;-70
2023/07/30 06:28:33;;;;;;;0.00;0.00;;;17.80;99.90;;;;;;5036394;28;20034;-70
2023/07/30 06:31:02;;;;;;;0.00;0.00;;;17.80;99.90;;;;;;5037600;28;20091;-70
2023/07/30 06:33:28;;;;;;;0.00;0.00;;;17.90;99.90;;;;;;5040689;28;20038;-70
2023/07/30 06:35:54;;;;;;;0.10;0.10;;;17.90;99.90;;;;;;5041067;28;20040;-70
2023/07/30 06:38:19;;;;;;;0.25;0.25;;;17.90;99.90;;;;;;5044614;28;20037;-70
2023/07/30 06:40:45;;;;;;;0.00;0.00;;;18.00;99.90;;;;;;5027643;28;20041;-70
2023/07/30 06:43:10;;;;;;;0.00;0.00;;;18.10;99.90;;;;;;5038754;28;20057;-70
2023/07/30 06:45:36;;;;;;;4.63;0.75;;;18.20;99.90;;;;;;5024835;28;20650;-70
2023/07/30 06:48:01;;;;;;;0.00;0.00;;;18.20;99.90;;;;;;5046590;28;20044;-70
2023/07/30 06:50:27;;;;;;;0.60;0.60;;;18.20;99.90;;;;;;5026001;28;20061;-71
2023/07/30 06:52:52;;;;;;;0.65;0.65;;;18.10;99.90;;;;;;5039074;28;20131;-70
2023/07/30 06:55:18;;;;;;;0.28;0.08;;;18.10;99.90;;;;;;5041221;28;20045;-72
2023/07/30 06:57:44;;;;;;;0.10;0.10;;;18.10;99.90;;;;;;5037301;28;20045;-70
2023/07/30 07:00:10;;;;;;;5.88;0.38;;;18.20;99.90;;;;;;5035862;28;20127;-68
2023/07/30 07:02:36;;;;;;;0.30;0.30;;;18.30;99.90;;;;;;5032661;28;20052;-69
2023/07/30 07:05:02;;;;;;;0.20;0.20;;;18.50;99.90;;;;;;5024109;28;20045;-68
2023/07/30 07:07:28;;;;;;;0.00;0.00;;;18.50;99.90;;;;;;5040073;28;20046;-68
2023/07/30 07:09:53;;;;;;;0.20;0.20;;;18.60;99.90;;;;;;5048088;28;20082;-68
2023/07/30 07:12:19;;;;;;;0.10;0.10;;;18.70;99.90;;;;;;5019307;28;20064;-70
2023/07/30 07:14:44;;;;;;;0.00;0.00;;;18.80;99.90;;;;;;5045896;28;20048;-69
2023/07/30 07:17:10;;;;;;;1.55;1.02;;;18.80;99.90;;;;;;5045887;28;20049;-70
2023/07/30 07:19:36;;;;;;;0.22;0.22;;;18.70;99.90;;;;;;5045449;28;20712;-70
2023/07/30 07:22:05;;;;;;;0.45;0.45;;;18.80;99.90;;;;;;5048082;28;20044;-70
2023/07/30 07:24:31;;;;;;;0.10;0.10;;;18.70;99.90;;;;;;5030056;28;20469;-70
2023/07/30 07:26:57;;;;;;;0.75;0.75;;;18.70;99.90;;;;;;5046958;28;20060;-70
2023/07/30 07:29:23;;;;;;;0.00;0.00;;;18.60;99.90;;;;;;5042240;28;20614;-69
2023/07/30 07:31:48;;;;;;;0.00;0.00;;;18.60;99.90;;;;;;5042008;28;20116;-70
2023/07/30 07:34:14;;;;;;;0.03;0.03;;;18.60;99.90;;;;;;5033815;28;20064;-70
2023/07/30 07:36:39;;;;;;;0.00;0.00;;;18.50;99.90;;;;;;5023337;28;20369;-69
2023/07/30 07:39:06;;;;;;;1.38;0.57;;;18.50;99.90;;;;;;5038082;28;20048;-70
2023/07/30 07:41:32;;;;;;;0.13;0.13;;;18.60;99.90;;;;;;5035305;28;20051;-69
2023/07/30 07:43:57;;;;;;;0.55;0.55;;;18.60;99.90;;;;;;5041883;28;20040;-70
2023/07/30 07:46:23;;;;;;;1.40;1.23;;;18.60;99.90;;;;;;5026092;28;20099;-69
2023/07/30 07:48:49;;;;;;;0.28;0.28;;;18.60;99.90;;;;;;5035236;28;20034;-70
2023/07/30 07:51:14;;;;;;;0.00;0.00;;;18.60;99.90;;;;;;5042408;28;20064;-67
2023/07/30 07:53:40;;;;;;;0.00;0.00;;;18.60;99.90;;;;;;5039726;28;20048;-70
2023/07/30 07:56:05;;;;;;;0.20;0.20;;;18.60;99.90;;;;;;5020828;28;20544;-69
2023/07/30 07:58:32;;;;;;;1.08;0.40;;;18.60;99.90;;;;;;5033987;28;20045;-68
2023/07/30 08:00:59;;;;;;;0.00;0.00;;;18.60;99.90;;;;;;5018338;28;20045;-68
2023/07/30 08:03:26;;;;;;;0.52;0.52;;;18.60;99.90;;;;;;5018198;28;20064;-68
2023/07/30 08:05:52;;;;;;;0.00;0.00;;;18.60;99.90;;;;;;5036527;28;20041;-68
2023/07/30 08:08:18;;;;;;;0.00;0.00;;;18.60;99.90;;;;;;5037820;28;20370;-67
2023/07/30 08:10:46;;;;;;;0.03;0.03;;;18.50;99.90;;;;;;5039936;28;20053;-69
2023/07/30 08:13:12;;;;;;;0.35;0.25;;;18.50;99.90;;;;;;5045250;28;20057;-69
2023/07/30 08:15:38;;;;;;;0.00;0.00;;;18.50;99.90;;;;;;5041189;28;20037;-69
2023/07/30 08:18:04;;;;;;;0.00;0.00;;;18.40;99.90;;;;;;5047071;28;20110;-69
2023/07/30 08:20:29;;;;;;;1.13;1.00;;;18.30;99.90;;;;;;5023456;28;20471;-69
2023/07/30 08:22:55;;;;;;;0.10;0.10;;;18.30;99.90;;;;;;5045290;28;20501;-69
2023/07/30 08:25:20;;;;;;;12.23;1.50;;;18.20;99.90;;;;;;5043674;28;20045;-69
2023/07/30 08:27:46;;;;;;;0.00;0.00;;;18.10;99.90;;;;;;5039595;28;20165;-70
2023/07/30 08:30:12;;;;;;;0.00;0.00;;;18.00;99.90;;;;;;5018072;28;20040;-69
2023/07/30 08:32:38;;;;;;;1.02;0.15;;;17.60;99.90;;;;;;5036223;28;20067;-69
2023/07/30 08:35:04;;;;;;;0.60;0.60;;;17.50;99.90;;;;;;5029117;28;20393;-69
2023/07/30 08:37:30;;;;;;;0.32;0.32;;;17.40;99.90;;;;;;5046031;28;20037;-69
2023/07/30 08:39:56;;;;;;;1.55;0.73;;;17.30;99.90;;;;;;5041546;28;20033;-69
2023/07/30 08:42:22;;;;;;;0.35;0.35;;;17.30;99.90;;;;;;5046215;28;20087;-69
2023/07/30 08:44:48;;;;;;;0.03;0.03;;;17.40;99.90;;;;;;5039468;28;20033;-69
2023/07/30 08:47:13;;;;;;;0.00;0.00;;;17.50;99.90;;;;;;5038511;28;20041;-70
2023/07/30 08:49:39;;;;;;;0.00;0.00;;;17.60;99.90;;;;;;5021781;28;20076;-70
2023/07/30 08:52:08;;;;;;;0.00;0.00;;;17.70;99.90;;;;;;5046350;28;20159;-70
2023/07/30 08:54:34;;;;;;;0.05;0.05;;;17.80;99.90;;;;;;5040917;28;20087;-70
2023/07/30 08:57:01;;;;;;;0.00;0.00;;;17.90;99.90;;;;;;5037956;28;20477;-69
2023/07/30 08:59:30;;;;;;;0.98;0.65;;;18.00;99.90;;;;;;5041967;28;20089;-68
2023/07/30 09:01:58;;;;;;;0.13;0.13;;;18.00;99.90;;;;;;5041646;28;20045;-69
2023/07/30 09:04:24;;;;;;;0.00;0.00;;;18.10;99.90;;;;;;5041984;28;20056;-70
2023/07/30 09:06:50;;;;;;;0.38;0.38;;;18.20;99.90;;;;;;5044841;28;20104;-69
2023/07/30 09:09:16;;;;;;;0.55;0.38;;;18.20;99.90;;;;;;5025650;28;20040;-69
2023/07/30 09:11:41;;;;;;;0.00;0.00;;;18.20;99.90;;;;;;5040776;28;20041;-69
2023/07/30 09:14:09;;;;;;;0.17;0.17;;;18.30;99.90;;;;;;5045459;28;20052;-69
2023/07/30 09:16:34;;;;;;;0.10;0.10;;;18.30;99.90;;;;;;5039756;28;20435;-68
2023/07/30 09:19:00;;;;;;;11.15;2.45;;;18.30;99.90;;;;;;5040957;28;20037;-69
2023/07/30 09:21:33;;;;;;;0.00;0.00;;;18.30;99.90;;;;;;5034975;28;20077;-68
2023/07/30 09:24:05;;;;;;;0.00;0.00;;;18.30;99.90;;;;;;5040691;28;20049;-66
2023/07/30 09:26:41;;;;;;;0.00;0.00;;;18.40;99.90;;;;;;5040615;28;20049;-66
2023/07/30 09:29:10;;;;;;;0.00;0.00;;;18.70;99.90;;;;;;5037231;28;20551;-66
2023/07/30 09:31:54;;;;;;;1.20;0.98;;;18.90;99.90;;;;;;5035637;28;20125;-67
2023/07/30 09:34:21;;;;;;;0.00;0.00;;;19.00;99.90;;;;;;5041270;28;20065;-68
2023/07/30 09:36:47;;;;;;;1.42;1.33;;;19.00;99.90;;;;;;5039409;28;20033;-66
2023/07/30 09:39:21;;;;;;;0.00;0.00;;;19.00;99.90;;;;;;5042755;28;20095;-67
2023/07/30 09:41:47;;;;;;;0.10;0.10;;;19.10;99.90;;;;;;5041228;28;20045;-66
2023/07/30 09:44:20;;;;;;;0.10;0.10;;;19.00;99.90;;;;;;5046222;28;20131;-67
2023/07/30 09:46:48;;;;;;;0.10;0.10;;;19.50;99.90;;;;;;5024952;28;20408;-68
2023/07/30 09:49:14;;;;;;;6.95;0.55;;;19.90;99.90;;;;;;5041120;28;20048;-69
2023/07/30 09:51:40;;;;;;;0.20;0.20;;;20.40;99.90;;;;;;5029446;28;20144;-68
2023/07/30 09:54:11;;;;;;;1.00;0.20;;;20.40;99.90;;;;;;5045210;28;20045;-68
2023/07/30 09:56:38;;;;;;;0.13;0.10;;;20.50;99.90;;;;;;5040560;28;20271;-68
2023/07/30 09:59:07;;;;;;;0.00;0.00;;;20.90;99.90;;;;;;5040336;28;20048;-68
2023/07/30 10:01:38;;;;;;;0.10;0.10;;;21.20;99.90;;;;;;5036268;28;20132;-70
2023/07/30 10:04:11;;;;;;;0.00;0.00;;;21.50;99.90;;;;;;5049315;28;20058;-70
2023/07/30 10:06:42;;;;;;;0.43;0.43;;;21.80;99.90;;;;;;5043440;28;20049;-70
2023/07/30 10:09:10;;;;;;;5.72;2.17;;;22.10;99.90;;;;;;5038877;28;20440;-70
2023/07/30 10:11:37;;;;;;;0.10;0.10;;;22.00;99.90;;;;;;5038884;28;20046;-70
2023/07/30 10:14:03;;;;;;;0.00;0.00;;;22.10;99.90;;;;;;5031651;28;20531;-70
2023/07/30 10:16:29;;;;;;;0.10;0.10;;;22.10;99.90;;;;;;5036489;28;20053;-70
2023/07/30 10:18:58;;;;;;;0.15;0.15;;;22.10;99.90;;;;;;5026938;28;20400;-69
2023/07/30 10:21:26;;;;;;;6.00;1.27;;;21.80;99.90;;;;;;5037269;28;20085;-69
2023/07/30 10:24:04;;;;;;;0.00;0.00;;;21.90;99.90;;;;;;5035515;28;20124;-68
2023/07/30 10:26:36;;;;;;;1.85;1.48;;;21.60;99.90;;;;;;5038211;28;20132;-69
2023/07/30 10:29:18;;;;;;;0.77;0.47;;;21.60;99.90;;;;;;5038959;28;20037;-70
2023/07/30 10:31:48;;;;;;;0.45;0.38;;;21.50;99.90;;;;;;5039167;28;20049;-68
2023/07/30 10:34:14;;;;;;;0.70;0.20;;;21.70;99.90;;;;;;5043587;28;20053;-69
2023/07/30 10:36:45;;;;;;;0.30;0.30;;;21.80;99.90;;;;;;5040722;28;20061;-69
2023/07/30 10:39:26;;;;;;;0.00;0.00;;;22.00;99.90;;;;;;5022064;28;20050;-68
2023/07/30 10:41:56;;;;;;;1.23;0.63;;;21.80;99.90;;;;;;5041288;28;20048;-69
2023/07/30 10:44:30;;;;;;;0.20;0.20;;;21.70;99.90;;;;;;5047363;28;20037;-69
2023/07/30 10:46:57;;;;;;;1.33;0.40;;;21.30;99.90;;;;;;5038017;28;20045;-69
2023/07/30 10:49:23;;;;;;;0.20;0.20;;;21.40;99.90;;;;;;5044030;28;20036;-71
2023/07/30 10:51:52;;;;;;;0.00;0.00;;;21.50;99.90;;;;;;5048215;28;20053;-70
2023/07/30 10:54:18;;;;;;;0.08;0.08;;;21.60;99.90;;;;;;5043583;28;20064;-70
2023/07/30 10:56:45;;;;;;;0.15;0.10;;;21.40;99.90;;;;;;5037716;28;20483;-69
2023/07/30 10:59:11;;;;;;;0.57;0.35;;;21.20;99.90;;;;;;5045100;28;20037;-70
2023/07/30 11:01:42;;;;;;;1.95;1.52;;;21.20;99.90;;;;;;5038737;28;20049;-70
2023/07/30 11:04:19;;;;;;;0.32;0.32;;;21.30;99.90;;;;;;5025203;28;20056;-70
2023/07/30 11:06:49;;;;;;;0.47;0.43;;;21.20;99.90;;;;;;5039993;28;20520;-70
2023/07/30 11:09:23;;;;;;;0.35;0.17;;;21.00;99.90;;;;;;5032125;28;20503;-70
2023/07/30 11:11:49;;;;;;;14.25;1.95;;;20.90;99.90;;;;;;5045661;28;20853;-70
2023/07/30 11:14:19;;;;;;;1.23;0.47;;;20.70;99.90;;;;;;5048492;28;20067;-70
2023/07/30 11:16:59;;;;;;;0.30;0.30;;;20.60;99.90;;;;;;5035309;28;20136;-70
2023/07/30 11:19:26;;;;;;;0.55;0.55;;;20.50;99.90;;;;;;5023203;28;20052;-71
2023/07/30 11:21:53;;;;;;;0.00;0.00;;;20.40;99.90;;;;;;5021486;28;20052;-71
2023/07/30 11:24:19;;;;;;;0.30;0.30;;;20.20;99.90;;;;;;5044618;28;20048;-72
2023/07/30 11:26:45;;;;;;;8.07;0.40;;;20.10;99.90;;;;;;5035234;28;20041;-72
2023/07/30 11:29:17;;;;;;;0.20;0.20;;;20.40;99.90;;;;;;5049338;28;20059;-73
2023/07/30 11:31:45;;;;;;;4.03;1.67;;;20.20;99.90;;;;;;5033116;28;20045;-72
2023/07/30 11:34:11;;;;;;;18.02;1.27;;;20.00;99.90;;;;;;5028467;28;20307;-69
2023/07/30 11:36:38;;;;;;;1.17;0.98;;;20.30;99.90;;;;;;5040336;28;20045;-70
2023/07/30 11:39:04;;;;;;;0.00;0.00;;;20.40;99.90;;;;;;5030475;28;20049;-70
2023/07/30 11:41:30;;;;;;;0.00;0.00;;;20.70;99.90;;;;;;5038293;28;20476;-70
2023/07/30 11:43:56;;;;;;;0.80;0.45;;;20.80;99.90;;;;;;5030293;28;20055;-70
2023/07/30 11:46:22;;;;;;;6.90;1.02;;;20.90;99.90;;;;;;5039100;28;20068;-71
2023/07/30 11:48:50;;;;;;;0.00;0.00;;;21.10;99.90;;;;;;5033694;28;20056;-71
2023/07/30 11:51:24;;;;;;;0.08;0.08;;;21.40;99.90;;;;;;5040926;28;20136;-69
2023/07/30 11:53:56;;;;;;;0.00;0.00;;;21.70;99.90;;;;;;5035756;28;20045;-71
2023/07/30 11:56:26;;;;;;;0.00;0.00;;;21.90;99.90;;;;;;5029125;28;20423;-70
2023/07/30 11:59:04;;;;;;;0.00;0.00;;;22.00;99.90;;;;;;5042418;28;20564;-71
2023/07/30 12:01:32;;;;;;;2.63;0.65;;;22.10;99.90;;;;;;5028629;28;20535;-71
2023/07/30 12:03:59;;;;;;;0.00;0.00;;;22.30;99.90;;;;;;5039592;28;20048;-70
2023/07/30 12:06:38;;;;;;;0.00;0.00;;;22.10;99.90;;;;;;5045706;28;20087;-71
2023/07/30 12:09:16;;;;;;;0.00;0.00;;;22.30;99.90;;;;;;5048877;28;20048;-71
2023/07/30 12:11:59;;;;;;;0.00;0.00;;;22.30;99.90;;;;;;5042259;28;20219;-70
2023/07/30 12:14:42;;;;;;;0.00;0.00;;;22.70;99.90;;;;;;5035262;28;20041;-71
2023/07/30 12:17:07;;;;;;;0.20;0.20;;;22.40;99.90;;;;;;5042144;28;20044;-70
2023/07/30 12:19:33;;;;;;;0.00;0.00;;;22.50;99.90;;;;;;5033051;28;20548;-70
2023/07/30 12:21:58;;;;;;;0.00;0.00;;;22.60;99.90;;;;;;5018176;28;20071;-70
2023/07/30 12:24:24;;;;;;;0.00;0.00;;;22.10;99.90;;;;;;5024961;28;20403;-69
2023/07/30 12:26:49;;;;;;;2.90;1.25;;;22.10;99.90;;;;;;5030976;28;20108;-71
2023/07/30 12:29:15;;;;;;;0.35;0.35;;;21.70;99.90;;;;;;5047952;28;20073;-70
2023/07/30 12:31:41;;;;;;;2.83;0.25;;;21.60;99.90;;;;;;5044364;28;20041;-69
2023/07/30 12:34:06;;;;;;;0.00;0.00;;;22.30;99.90;;;;;;5040824;28;20041;-70
2023/07/30 12:36:32;;;;;;;0.20;0.20;;;22.70;99.90;;;;;;5029460;28;20041;-70
2023/07/30 12:38:57;;;;;;;0.00;0.00;;;23.00;99.90;;;;;;5039579;28;20052;-70
2023/07/30 12:41:25;;;;;;;0.00;0.00;;;23.10;99.90;;;;;;5035796;28;20110;-69
2023/07/30 12:43:59;;;;;;;0.08;0.08;;;23.30;99.90;;;;;;5037646;28;20045;-69
2023/07/30 12:46:27;;;;;;;;;;;23.30;99.90;;;;;;5024539;28;20398;-70